sensor_id;sensor_type;location;lat;lon;timestamp;pressure;altitude;pressure_sealevel;temperature;humidity
39487;BME280;25173;50.430;18.926;2023-05-15T00:02:09;97595.44;;;17.44;59.88
39487;BME280;25173;50.430;18.926;2023-05-15T00:05:10;97596.44;;;17.39;59.66
39487;BME280;25173;50.430;18.926;2023-05-15T00:08:12;97590.31;;;17.34;59.85
39487;BME280;25173;50.430;18.926;2023-05-15T00:11:12;97585.16;;;17.32;59.80
39487;BME280;25173;50.430;18.926;2023-05-15T00:14:13;97595.03;;;17.33;59.79
39487;BME280;25173;50.430;18.926;2023-05-15T00:17:14;97600.38;;;17.30;59.96
39487;BME280;25173;50.430;18.926;2023-05-15T00:20:14;97604.25;;;17.29;60.21
39487;BME280;25173;50.430;18.926;2023-05-15T00:23:15;97583.72;;;17.26;60.14
39487;BME280;25173;50.430;18.926;2023-05-15T00:26:15;97583.25;;;17.24;60.22
39487;BME280;25173;50.430;18.926;2023-05-15T00:29:16;97572.41;;;17.19;60.28
39487;BME280;25173;50.430;18.926;2023-05-15T00:32:16;97579.88;;;17.19;60.40
39487;BME280;25173;50.430;18.926;2023-05-15T00:35:18;97557.06;;;17.18;60.48
39487;BME280;25173;50.430;18.926;2023-05-15T00:38:18;97553.94;;;17.20;60.42
39487;BME280;25173;50.430;18.926;2023-05-15T00:41:21;97546.50;;;17.20;60.46
39487;BME280;25173;50.430;18.926;2023-05-15T00:44:22;97546.03;;;17.18;60.50
39487;BME280;25173;50.430;18.926;2023-05-15T00:47:25;97535.03;;;17.18;60.66
39487;BME280;25173;50.430;18.926;2023-05-15T00:50:26;97533.41;;;17.17;60.60
39487;BME280;25173;50.430;18.926;2023-05-15T00:53:27;97525.16;;;17.17;60.52
39487;BME280;25173;50.430;18.926;2023-05-15T00:56:28;97514.69;;;17.11;60.72
39487;BME280;25173;50.430;18.926;2023-05-15T00:59:30;97510.16;;;17.06;60.88
39487;BME280;25173;50.430;18.926;2023-05-15T01:02:32;97513.91;;;17.01;60.58
39487;BME280;25173;50.430;18.926;2023-05-15T01:05:34;97509.22;;;17.02;60.95
39487;BME280;25173;50.430;18.926;2023-05-15T01:08:44;97506.97;;;17.04;61.20
39487;BME280;25173;50.430;18.926;2023-05-15T01:11:46;97497.88;;;17.03;61.07
39487;BME280;25173;50.430;18.926;2023-05-15T01:14:49;97498.69;;;17.04;60.98
39487;BME280;25173;50.430;18.926;2023-05-15T01:17:50;97503.03;;;17.05;61.14
39487;BME280;25173;50.430;18.926;2023-05-15T01:21:05;97497.41;;;17.01;61.24
39487;BME280;25173;50.430;18.926;2023-05-15T01:27:36;97496.13;;;16.99;61.34
39487;BME280;25173;50.430;18.926;2023-05-15T01:30:41;97500.97;;;17.02;61.45
39487;BME280;25173;50.430;18.926;2023-05-15T01:33:45;97502.59;;;17.03;61.49
39487;BME280;25173;50.430;18.926;2023-05-15T01:36:52;97501.44;;;17.04;61.58
39487;BME280;25173;50.430;18.926;2023-05-15T01:39:59;97484.94;;;17.04;61.61
39487;BME280;25173;50.430;18.926;2023-05-15T01:43:07;97474.38;;;17.06;61.50
39487;BME280;25173;50.430;18.926;2023-05-15T01:46:10;97466.81;;;17.03;61.51
39487;BME280;25173;50.430;18.926;2023-05-15T01:49:15;97462.28;;;16.98;61.86
39487;BME280;25173;50.430;18.926;2023-05-15T01:52:23;97468.81;;;16.94;61.84
39487;BME280;25173;50.430;18.926;2023-05-15T01:55:28;97462.81;;;16.92;62.00
39487;BME280;25173;50.430;18.926;2023-05-15T01:58:31;97462.34;;;16.90;62.01
39487;BME280;25173;50.430;18.926;2023-05-15T02:01:33;97458.00;;;16.89;61.92
39487;BME280;25173;50.430;18.926;2023-05-15T02:04:37;97461.09;;;16.87;62.19
39487;BME280;25173;50.430;18.926;2023-05-15T02:07:42;97459.31;;;16.83;62.28
39487;BME280;25173;50.430;18.926;2023-05-15T02:10:45;97458.84;;;16.81;62.23
39487;BME280;25173;50.430;18.926;2023-05-15T02:13:46;97456.44;;;16.79;62.23
39487;BME280;25173;50.430;18.926;2023-05-15T02:16:47;97460.78;;;16.80;62.43
39487;BME280;25173;50.430;18.926;2023-05-15T02:19:49;97462.22;;;16.86;62.69
39487;BME280;25173;50.430;18.926;2023-05-15T02:22:49;97452.97;;;16.91;62.32
39487;BME280;25173;50.430;18.926;2023-05-15T02:29:20;97459.88;;;16.97;62.46
39487;BME280;25173;50.430;18.926;2023-05-15T02:35:57;97448.50;;;16.78;62.93
39487;BME280;25173;50.430;18.926;2023-05-15T02:38:59;97443.69;;;16.75;62.51
39487;BME280;25173;50.430;18.926;2023-05-15T02:42:00;97439.66;;;16.72;62.63
39487;BME280;25173;50.430;18.926;2023-05-15T02:45:01;97432.53;;;16.71;62.71
39487;BME280;25173;50.430;18.926;2023-05-15T02:48:04;97431.25;;;16.68;62.87
39487;BME280;25173;50.430;18.926;2023-05-15T02:51:05;97428.03;;;16.66;62.99
39487;BME280;25173;50.430;18.926;2023-05-15T02:54:06;97422.53;;;16.66;63.04
39487;BME280;25173;50.430;18.926;2023-05-15T02:57:08;97427.22;;;16.66;63.13
39487;BME280;25173;50.430;18.926;2023-05-15T03:00:09;97427.22;;;16.66;63.20
39487;BME280;25173;50.430;18.926;2023-05-15T03:03:11;97412.84;;;16.60;63.35
39487;BME280;25173;50.430;18.926;2023-05-15T03:06:11;97410.13;;;16.52;63.71
39487;BME280;25173;50.430;18.926;2023-05-15T03:09:12;97412.25;;;16.46;63.70
39487;BME280;25173;50.430;18.926;2023-05-15T03:12:12;97409.84;;;16.45;63.83
39487;BME280;25173;50.430;18.926;2023-05-15T03:15:13;97408.22;;;16.44;63.98
39487;BME280;25173;50.430;18.926;2023-05-15T03:18:14;97401.13;;;16.43;63.91
39487;BME280;25173;50.430;18.926;2023-05-15T03:21:14;97392.53;;;16.44;63.91
39487;BME280;25173;50.430;18.926;2023-05-15T03:24:15;97399.78;;;16.49;63.96
39487;BME280;25173;50.430;18.926;2023-05-15T03:27:15;97404.16;;;16.50;64.01
39487;BME280;25173;50.430;18.926;2023-05-15T03:30:16;97405.56;;;16.56;64.08
39487;BME280;25173;50.430;18.926;2023-05-15T03:33:16;97398.94;;;16.65;64.24
39487;BME280;25173;50.430;18.926;2023-05-15T03:36:17;97395.31;;;16.74;63.71
39487;BME280;25173;50.430;18.926;2023-05-15T03:39:18;97396.94;;;16.75;63.62
39487;BME280;25173;50.430;18.926;2023-05-15T03:42:18;97408.59;;;16.72;63.78
39487;BME280;25173;50.430;18.926;2023-05-15T03:45:22;97398.13;;;16.65;63.88
39487;BME280;25173;50.430;18.926;2023-05-15T03:48:23;97396.84;;;16.62;64.08
39487;BME280;25173;50.430;18.926;2023-05-15T03:51:24;97388.94;;;16.52;64.26
39487;BME280;25173;50.430;18.926;2023-05-15T03:54:27;97384.09;;;16.49;64.43
39487;BME280;25173;50.430;18.926;2023-05-15T03:57:28;97382.97;;;16.50;64.41
39487;BME280;25173;50.430;18.926;2023-05-15T04:00:28;97382.66;;;16.52;64.31
39487;BME280;25173;50.430;18.926;2023-05-15T04:03:29;97379.00;;;16.60;64.48
39487;BME280;25173;50.430;18.926;2023-05-15T04:06:29;97374.63;;;16.67;64.32
39487;BME280;25173;50.430;18.926;2023-05-15T04:09:30;97368.75;;;16.78;64.42
39487;BME280;25173;50.430;18.926;2023-05-15T04:12:32;97366.28;;;16.85;64.15
39487;BME280;25173;50.430;18.926;2023-05-15T04:15:34;97364.13;;;16.90;63.98
39487;BME280;25173;50.430;18.926;2023-05-15T04:18:34;97365.09;;;16.94;64.00
39487;BME280;25173;50.430;18.926;2023-05-15T04:21:35;97373.00;;;16.96;64.05
39487;BME280;25173;50.430;18.926;2023-05-15T04:24:35;97374.59;;;16.97;64.02
39487;BME280;25173;50.430;18.926;2023-05-15T04:27:36;97368.13;;;17.01;64.17
39487;BME280;25173;50.430;18.926;2023-05-15T04:30:37;97376.31;;;17.10;64.08
39487;BME280;25173;50.430;18.926;2023-05-15T04:33:38;97365.75;;;17.12;64.00
39487;BME280;25173;50.430;18.926;2023-05-15T04:36:38;97372.88;;;17.13;63.99
39487;BME280;25173;50.430;18.926;2023-05-15T04:39:39;97371.88;;;17.18;64.05
39487;BME280;25173;50.430;18.926;2023-05-15T04:42:40;97369.84;;;17.27;63.93
39487;BME280;25173;50.430;18.926;2023-05-15T04:45:40;97373.31;;;17.36;63.78
39487;BME280;25173;50.430;18.926;2023-05-15T04:48:41;97358.09;;;17.38;63.62
39487;BME280;25173;50.430;18.926;2023-05-15T04:51:41;97346.59;;;17.36;63.79
39487;BME280;25173;50.430;18.926;2023-05-15T04:54:42;97343.31;;;17.43;63.98
39487;BME280;25173;50.430;18.926;2023-05-15T04:57:45;97339.00;;;17.54;63.95
39487;BME280;25173;50.430;18.926;2023-05-15T05:00:46;97329.06;;;17.62;63.77
39487;BME280;25173;50.430;18.926;2023-05-15T05:03:46;97342.13;;;17.65;63.37
39487;BME280;25173;50.430;18.926;2023-05-15T05:06:47;97326.09;;;17.67;63.64
39487;BME280;25173;50.430;18.926;2023-05-15T05:09:47;97327.38;;;17.69;63.54
39487;BME280;25173;50.430;18.926;2023-05-15T05:12:48;97336.88;;;17.72;63.44
39487;BME280;25173;50.430;18.926;2023-05-15T05:15:48;97341.47;;;17.68;63.51
39487;BME280;25173;50.430;18.926;2023-05-15T05:18:49;97328.38;;;17.65;63.53
39487;BME280;25173;50.430;18.926;2023-05-15T05:21:50;97325.50;;;17.61;63.59
39487;BME280;25173;50.430;18.926;2023-05-15T05:24:51;97314.31;;;17.58;63.65
39487;BME280;25173;50.430;18.926;2023-05-15T05:27:51;97315.06;;;17.67;64.03
39487;BME280;25173;50.430;18.926;2023-05-15T05:30:52;97317.66;;;17.84;63.69
39487;BME280;25173;50.430;18.926;2023-05-15T05:33:52;97312.28;;;18.00;63.42
39487;BME280;25173;50.430;18.926;2023-05-15T05:36:53;97311.59;;;18.15;63.05
39487;BME280;25173;50.430;18.926;2023-05-15T05:39:54;97313.31;;;18.19;62.79
39487;BME280;25173;50.430;18.926;2023-05-15T05:43:01;97312.41;;;18.15;62.93
39487;BME280;25173;50.430;18.926;2023-05-15T05:46:02;97316.88;;;18.08;63.00
39487;BME280;25173;50.430;18.926;2023-05-15T05:49:03;97305.50;;;18.09;63.29
39487;BME280;25173;50.430;18.926;2023-05-15T05:52:05;97310.31;;;18.12;63.25
39487;BME280;25173;50.430;18.926;2023-05-15T05:55:06;97311.69;;;18.18;63.08
39487;BME280;25173;50.430;18.926;2023-05-15T05:58:07;97308.47;;;18.16;63.14
39487;BME280;25173;50.430;18.926;2023-05-15T06:01:08;97308.59;;;18.20;63.32
39487;BME280;25173;50.430;18.926;2023-05-15T06:04:08;97302.38;;;18.23;63.16
39487;BME280;25173;50.430;18.926;2023-05-15T06:07:09;97308.25;;;18.21;62.97
39487;BME280;25173;50.430;18.926;2023-05-15T06:10:10;97300.66;;;18.18;63.17
39487;BME280;25173;50.430;18.926;2023-05-15T06:13:12;97295.03;;;18.03;63.27
39487;BME280;25173;50.430;18.926;2023-05-15T06:16:14;97300.88;;;18.01;63.58
39487;BME280;25173;50.430;18.926;2023-05-15T06:19:14;97301.34;;;18.03;63.49
39487;BME280;25173;50.430;18.926;2023-05-15T06:22:15;97293.44;;;18.14;63.80
39487;BME280;25173;50.430;18.926;2023-05-15T06:25:16;97291.72;;;18.34;63.49
39487;BME280;25173;50.430;18.926;2023-05-15T06:28:16;97299.97;;;18.46;63.22
39487;BME280;25173;50.430;18.926;2023-05-15T06:31:17;97287.44;;;18.48;62.95
39487;BME280;25173;50.430;18.926;2023-05-15T06:34:17;97288.81;;;18.54;63.07
39487;BME280;25173;50.430;18.926;2023-05-15T06:37:18;97288.81;;;18.54;62.98
39487;BME280;25173;50.430;18.926;2023-05-15T06:40:19;97288.25;;;18.61;63.07
39487;BME280;25173;50.430;18.926;2023-05-15T06:43:20;97286.06;;;18.54;62.74
39487;BME280;25173;50.430;18.926;2023-05-15T06:46:21;97289.41;;;18.48;62.97
39487;BME280;25173;50.430;18.926;2023-05-15T06:49:22;97282.75;;;18.49;62.92
39487;BME280;25173;50.430;18.926;2023-05-15T06:52:23;97281.13;;;18.48;63.12
39487;BME280;25173;50.430;18.926;2023-05-15T06:55:23;97280.78;;;18.49;62.85
39487;BME280;25173;50.430;18.926;2023-05-15T06:58:24;97282.06;;;18.52;63.25
39487;BME280;25173;50.430;18.926;2023-05-15T07:01:25;97280.69;;;18.58;63.23
39487;BME280;25173;50.430;18.926;2023-05-15T07:04:25;97289.66;;;18.67;63.34
39487;BME280;25173;50.430;18.926;2023-05-15T07:07:26;97286.63;;;18.72;62.82
39487;BME280;25173;50.430;18.926;2023-05-15T07:10:27;97280.66;;;18.70;62.65
39487;BME280;25173;50.430;18.926;2023-05-15T07:13:27;97283.16;;;18.75;62.70
39487;BME280;25173;50.430;18.926;2023-05-15T07:16:28;97284.19;;;18.83;62.77
39487;BME280;25173;50.430;18.926;2023-05-15T07:19:29;97283.94;;;18.88;62.48
39487;BME280;25173;50.430;18.926;2023-05-15T07:22:30;97278.53;;;18.91;62.84
39487;BME280;25173;50.430;18.926;2023-05-15T07:25:31;97275.75;;;19.04;62.88
39487;BME280;25173;50.430;18.926;2023-05-15T07:28:31;97278.91;;;19.18;62.48
39487;BME280;25173;50.430;18.926;2023-05-15T07:31:32;97281.66;;;19.18;62.45
39487;BME280;25173;50.430;18.926;2023-05-15T07:34:32;97270.63;;;19.18;62.09
39487;BME280;25173;50.430;18.926;2023-05-15T07:37:33;97273.81;;;19.20;62.47
39487;BME280;25173;50.430;18.926;2023-05-15T07:40:34;97266.50;;;19.39;62.46
39487;BME280;25173;50.430;18.926;2023-05-15T07:43:35;97276.53;;;19.60;62.31
39487;BME280;25173;50.430;18.926;2023-05-15T07:46:35;97278.50;;;19.75;62.03
39487;BME280;25173;50.430;18.926;2023-05-15T07:49:38;97279.66;;;19.90;61.13
39487;BME280;25173;50.430;18.926;2023-05-15T07:52:39;97275.94;;;19.98;61.03
39487;BME280;25173;50.430;18.926;2023-05-15T07:55:40;97282.78;;;20.04;60.84
39487;BME280;25173;50.430;18.926;2023-05-15T07:58:41;97277.25;;;20.04;60.18
39487;BME280;25173;50.430;18.926;2023-05-15T08:01:41;97279.16;;;20.00;60.45
39487;BME280;25173;50.430;18.926;2023-05-15T08:04:42;97272.88;;;20.03;60.39
39487;BME280;25173;50.430;18.926;2023-05-15T08:07:43;97282.78;;;20.04;60.37
39487;BME280;25173;50.430;18.926;2023-05-15T08:10:43;97280.19;;;20.11;60.99
39487;BME280;25173;50.430;18.926;2023-05-15T08:13:44;97282.16;;;20.10;60.49
39487;BME280;25173;50.430;18.926;2023-05-15T08:16:45;97281.09;;;19.99;60.46
39487;BME280;25173;50.430;18.926;2023-05-15T08:19:46;97280.94;;;19.92;60.57
39487;BME280;25173;50.430;18.926;2023-05-15T08:22:47;97290.09;;;19.81;60.83
39487;BME280;25173;50.430;18.926;2023-05-15T08:25:47;97293.47;;;19.74;60.84
39487;BME280;25173;50.430;18.926;2023-05-15T08:28:48;97287.47;;;19.72;60.87
39487;BME280;25173;50.430;18.926;2023-05-15T08:31:49;97288.84;;;19.62;60.89
39487;BME280;25173;50.430;18.926;2023-05-15T08:34:49;97292.09;;;19.52;61.09
39487;BME280;25173;50.430;18.926;2023-05-15T08:37:50;97295.13;;;19.47;61.11
39487;BME280;25173;50.430;18.926;2023-05-15T08:40:51;97291.75;;;19.42;61.33
39487;BME280;25173;50.430;18.926;2023-05-15T08:43:54;97296.50;;;19.41;61.72
39487;BME280;25173;50.430;18.926;2023-05-15T08:46:56;97292.69;;;19.46;61.90
39487;BME280;25173;50.430;18.926;2023-05-15T08:50:03;97293.19;;;19.48;61.63
39487;BME280;25173;50.430;18.926;2023-05-15T08:53:04;97294.59;;;19.57;61.75
39487;BME280;25173;50.430;18.926;2023-05-15T08:56:06;97300.75;;;19.66;61.55
39487;BME280;25173;50.430;18.926;2023-05-15T08:59:06;97301.75;;;19.74;61.54
39487;BME280;25173;50.430;18.926;2023-05-15T09:02:07;97297.38;;;19.73;61.37
39487;BME280;25173;50.430;18.926;2023-05-15T09:05:08;97292.84;;;19.81;61.57
39487;BME280;25173;50.430;18.926;2023-05-15T09:08:09;97297.31;;;20.01;61.34
39487;BME280;25173;50.430;18.926;2023-05-15T09:11:10;97299.38;;;20.20;60.91
39487;BME280;25173;50.430;18.926;2023-05-15T09:14:11;97295.88;;;20.38;60.39
39487;BME280;25173;50.430;18.926;2023-05-15T09:17:12;97301.59;;;20.45;59.71
39487;BME280;25173;50.430;18.926;2023-05-15T09:20:29;97305.16;;;20.46;59.91
39487;BME280;25173;50.430;18.926;2023-05-15T09:23:30;97312.75;;;20.33;59.36
39487;BME280;25173;50.430;18.926;2023-05-15T09:26:31;97314.34;;;20.19;59.48
39487;BME280;25173;50.430;18.926;2023-05-15T09:29:33;97317.56;;;20.05;59.80
39487;BME280;25173;50.430;18.926;2023-05-15T09:32:34;97308.19;;;19.94;59.74
39487;BME280;25173;50.430;18.926;2023-05-15T09:35:37;97306.94;;;19.75;60.20
39487;BME280;25173;50.430;18.926;2023-05-15T09:38:40;97310.78;;;19.71;60.35
39487;BME280;25173;50.430;18.926;2023-05-15T09:41:41;97314.72;;;19.58;61.16
39487;BME280;25173;50.430;18.926;2023-05-15T09:44:44;97311.09;;;19.42;61.60
39487;BME280;25173;50.430;18.926;2023-05-15T09:47:45;97310.56;;;19.36;61.85
39487;BME280;25173;50.430;18.926;2023-05-15T09:50:46;97314.47;;;19.47;61.86
39487;BME280;25173;50.430;18.926;2023-05-15T09:53:48;97315.34;;;19.51;61.63
39487;BME280;25173;50.430;18.926;2023-05-15T09:56:50;97323.06;;;19.46;61.59
39487;BME280;25173;50.430;18.926;2023-05-15T09:59:50;97327.72;;;19.29;61.91
39487;BME280;25173;50.430;18.926;2023-05-15T10:02:51;97327.56;;;19.10;62.77
39487;BME280;25173;50.430;18.926;2023-05-15T10:05:58;97316.06;;;19.08;63.07
39487;BME280;25173;50.430;18.926;2023-05-15T10:09:01;97321.25;;;19.10;62.71
39487;BME280;25173;50.430;18.926;2023-05-15T10:12:01;97323.81;;;19.03;62.76
39487;BME280;25173;50.430;18.926;2023-05-15T10:15:03;97321.47;;;19.05;62.83
39487;BME280;25173;50.430;18.926;2023-05-15T10:18:05;97321.00;;;19.15;62.98
39487;BME280;25173;50.430;18.926;2023-05-15T10:21:08;97311.22;;;19.17;62.58
39487;BME280;25173;50.430;18.926;2023-05-15T10:24:09;97307.84;;;19.24;62.63
39487;BME280;25173;50.430;18.926;2023-05-15T10:27:11;97315.38;;;19.39;63.00
39487;BME280;25173;50.430;18.926;2023-05-15T10:30:14;97326.44;;;19.67;62.69
39487;BME280;25173;50.430;18.926;2023-05-15T10:33:16;97336.22;;;20.08;62.56
39487;BME280;25173;50.430;18.926;2023-05-15T10:36:19;97329.31;;;20.65;61.65
39487;BME280;25173;50.430;18.926;2023-05-15T10:39:20;97339.47;;;21.11;60.72
39487;BME280;25173;50.430;18.926;2023-05-15T10:42:22;97342.91;;;21.43;59.16
39487;BME280;25173;50.430;18.926;2023-05-15T10:45:25;97343.19;;;21.57;58.39
39487;BME280;25173;50.430;18.926;2023-05-15T10:48:26;97345.91;;;21.54;57.23
39487;BME280;25173;50.430;18.926;2023-05-15T10:51:28;97345.13;;;21.34;57.52
39487;BME280;25173;50.430;18.926;2023-05-15T10:54:29;97342.34;;;21.34;58.33
39487;BME280;25173;50.430;18.926;2023-05-15T10:57:30;97340.50;;;21.42;57.55
39487;BME280;25173;50.430;18.926;2023-05-15T11:00:31;97331.97;;;21.50;57.20
39487;BME280;25173;50.430;18.926;2023-05-15T11:03:36;97340.56;;;21.64;56.91
39487;BME280;25173;50.430;18.926;2023-05-15T11:06:42;97333.63;;;21.74;56.90
39487;BME280;25173;50.430;18.926;2023-05-15T11:09:43;97334.81;;;21.96;56.39
39487;BME280;25173;50.430;18.926;2023-05-15T11:12:55;97324.22;;;22.21;56.10
39487;BME280;25173;50.430;18.926;2023-05-15T11:15:56;97322.22;;;22.44;55.91
39487;BME280;25173;50.430;18.926;2023-05-15T11:18:56;97312.97;;;22.63;55.52
39487;BME280;25173;50.430;18.926;2023-05-15T11:21:58;97318.22;;;22.68;55.16
39487;BME280;25173;50.430;18.926;2023-05-15T11:25:06;97300.72;;;22.64;54.71
39487;BME280;25173;50.430;18.926;2023-05-15T11:28:20;97289.34;;;22.72;54.12
39487;BME280;25173;50.430;18.926;2023-05-15T11:31:28;97296.81;;;22.95;54.72
39487;BME280;25173;50.430;18.926;2023-05-15T11:37:31;97289.47;;;23.43;53.69
39487;BME280;25173;50.430;18.926;2023-05-15T11:40:52;97283.94;;;23.80;52.81
39487;BME280;25173;50.430;18.926;2023-05-15T11:43:54;97273.94;;;24.12;52.08
39487;BME280;25173;50.430;18.926;2023-05-15T11:46:56;97272.94;;;24.34;51.80
39487;BME280;25173;50.430;18.926;2023-05-15T11:49:57;97279.31;;;24.38;50.89
39487;BME280;25173;50.430;18.926;2023-05-15T11:53:03;97271.34;;;24.33;51.01
39487;BME280;25173;50.430;18.926;2023-05-15T11:56:03;97266.09;;;24.21;50.82
39487;BME280;25173;50.430;18.926;2023-05-15T11:59:04;97270.72;;;24.07;51.04
39487;BME280;25173;50.430;18.926;2023-05-15T12:02:05;97254.44;;;24.12;50.78
39487;BME280;25173;50.430;18.926;2023-05-15T12:05:06;97251.44;;;24.31;51.82
39487;BME280;25173;50.430;18.926;2023-05-15T12:08:11;97258.75;;;24.54;50.98
39487;BME280;25173;50.430;18.926;2023-05-15T12:11:12;97248.97;;;24.74;50.14
39487;BME280;25173;50.430;18.926;2023-05-15T12:14:12;97266.84;;;24.76;49.86
39487;BME280;25173;50.430;18.926;2023-05-15T12:17:13;97268.38;;;24.63;49.24
39487;BME280;25173;50.430;18.926;2023-05-15T12:20:17;97258.34;;;24.04;48.92
39487;BME280;25173;50.430;18.926;2023-05-15T12:23:20;97255.31;;;23.42;49.82
39487;BME280;25173;50.430;18.926;2023-05-15T12:26:22;97248.00;;;22.94;50.95
39487;BME280;25173;50.430;18.926;2023-05-15T12:29:25;97254.19;;;22.80;52.22
39487;BME280;25173;50.430;18.926;2023-05-15T12:32:26;97249.09;;;22.86;51.86
39487;BME280;25173;50.430;18.926;2023-05-15T12:35:27;97251.25;;;22.99;51.78
39487;BME280;25173;50.430;18.926;2023-05-15T12:38:36;97248.94;;;23.05;50.79
39487;BME280;25173;50.430;18.926;2023-05-15T12:42:03;97253.00;;;23.11;51.23
39487;BME280;25173;50.430;18.926;2023-05-15T12:45:15;97258.03;;;23.35;50.31
39487;BME280;25173;50.430;18.926;2023-05-15T12:48:16;97244.25;;;23.46;50.30
39487;BME280;25173;50.430;18.926;2023-05-15T12:51:17;97241.59;;;23.53;50.27
39487;BME280;25173;50.430;18.926;2023-05-15T12:54:18;97259.88;;;23.57;50.02
39487;BME280;25173;50.430;18.926;2023-05-15T12:57:20;97256.44;;;23.68;49.51
39487;BME280;25173;50.430;18.926;2023-05-15T13:00:20;97260.47;;;23.40;49.18
39487;BME280;25173;50.430;18.926;2023-05-15T13:03:23;97265.94;;;23.00;49.89
39487;BME280;25173;50.430;18.926;2023-05-15T13:06:24;97261.56;;;22.72;49.61
39487;BME280;25173;50.430;18.926;2023-05-15T13:09:25;97256.56;;;22.55;49.71
39487;BME280;25173;50.430;18.926;2023-05-15T13:12:26;97260.31;;;22.40;49.42
39487;BME280;25173;50.430;18.926;2023-05-15T13:15:31;97261.06;;;22.37;49.74
39487;BME280;25173;50.430;18.926;2023-05-15T13:18:34;97257.06;;;22.34;50.07
39487;BME280;25173;50.430;18.926;2023-05-15T13:21:35;97251.50;;;22.34;50.19
39487;BME280;25173;50.430;18.926;2023-05-15T13:24:35;97258.69;;;22.39;50.30
39487;BME280;25173;50.430;18.926;2023-05-15T13:27:36;97267.41;;;22.37;49.72
39487;BME280;25173;50.430;18.926;2023-05-15T13:30:37;97249.88;;;22.30;49.84
39487;BME280;25173;50.430;18.926;2023-05-15T13:33:41;97256.25;;;22.34;49.88
39487;BME280;25173;50.430;18.926;2023-05-15T13:36:41;97259.03;;;22.34;49.43
39487;BME280;25173;50.430;18.926;2023-05-15T13:39:42;97259.13;;;22.41;49.87
39487;BME280;25173;50.430;18.926;2023-05-15T13:42:43;97261.91;;;22.67;49.70
39487;BME280;25173;50.430;18.926;2023-05-15T13:45:44;97277.09;;;22.73;48.78
39487;BME280;25173;50.430;18.926;2023-05-15T13:48:44;97279.75;;;22.66;48.35
39487;BME280;25173;50.430;18.926;2023-05-15T13:51:45;97275.56;;;22.53;47.95
39487;BME280;25173;50.430;18.926;2023-05-15T13:54:46;97265.69;;;22.56;47.79
39487;BME280;25173;50.430;18.926;2023-05-15T13:57:46;97270.97;;;22.64;47.91
39487;BME280;25173;50.430;18.926;2023-05-15T14:00:47;97260.16;;;22.82;47.71
39487;BME280;25173;50.430;18.926;2023-05-15T14:03:47;97269.13;;;23.02;47.54
39487;BME280;25173;50.430;18.926;2023-05-15T14:06:48;97266.28;;;23.28;47.15
39487;BME280;25173;50.430;18.926;2023-05-15T14:09:49;97259.03;;;23.20;45.78
39487;BME280;25173;50.430;18.926;2023-05-15T14:12:50;97263.53;;;22.98;45.73
39487;BME280;25173;50.430;18.926;2023-05-15T14:15:51;97277.44;;;22.72;46.12
39487;BME280;25173;50.430;18.926;2023-05-15T14:18:51;97277.69;;;22.63;46.44
39487;BME280;25173;50.430;18.926;2023-05-15T14:21:52;97267.78;;;22.62;47.11
39487;BME280;25173;50.430;18.926;2023-05-15T14:24:53;97268.66;;;22.70;46.62
39487;BME280;25173;50.430;18.926;2023-05-15T14:27:53;97256.69;;;23.22;46.69
39487;BME280;25173;50.430;18.926;2023-05-15T14:30:54;97274.44;;;24.21;45.37
39487;BME280;25173;50.430;18.926;2023-05-15T14:33:54;97293.94;;;24.83;43.80
39487;BME280;25173;50.430;18.926;2023-05-15T14:36:55;97300.00;;;24.92;41.94
39487;BME280;25173;50.430;18.926;2023-05-15T14:39:55;97289.38;;;25.16;41.82
39487;BME280;25173;50.430;18.926;2023-05-15T14:42:56;97277.25;;;25.73;41.88
39487;BME280;25173;50.430;18.926;2023-05-15T14:45:57;97295.31;;;26.33;41.09
39487;BME280;25173;50.430;18.926;2023-05-15T14:48:57;97291.31;;;26.55;39.81
39487;BME280;25173;50.430;18.926;2023-05-15T14:51:58;97291.25;;;26.87;40.38
39487;BME280;25173;50.430;18.926;2023-05-15T14:54:58;97287.97;;;27.27;39.67
39487;BME280;25173;50.430;18.926;2023-05-15T14:57:59;97295.56;;;27.23;39.12
39487;BME280;25173;50.430;18.926;2023-05-15T15:01:00;97294.44;;;27.03;39.36
39487;BME280;25173;50.430;18.926;2023-05-15T15:04:01;97308.06;;;26.58;39.68
39487;BME280;25173;50.430;18.926;2023-05-15T15:07:03;97304.44;;;26.19;40.14
39487;BME280;25173;50.430;18.926;2023-05-15T15:10:04;97288.53;;;26.37;40.07
39487;BME280;25173;50.430;18.926;2023-05-15T15:13:06;97301.63;;;25.90;40.36
39487;BME280;25173;50.430;18.926;2023-05-15T15:16:09;97315.19;;;25.05;41.64
39487;BME280;25173;50.430;18.926;2023-05-15T15:19:10;97312.06;;;24.08;43.95
39487;BME280;25173;50.430;18.926;2023-05-15T15:22:10;97312.94;;;23.12;45.61
39487;BME280;25173;50.430;18.926;2023-05-15T15:25:11;97312.47;;;22.80;46.83
39487;BME280;25173;50.430;18.926;2023-05-15T15:28:12;97315.22;;;23.36;46.79
39487;BME280;25173;50.430;18.926;2023-05-15T15:31:13;97318.03;;;24.10;45.35
39487;BME280;25173;50.430;18.926;2023-05-15T15:34:14;97314.31;;;24.40;43.83
39487;BME280;25173;50.430;18.926;2023-05-15T15:37:15;97297.09;;;24.74;43.79
39487;BME280;25173;50.430;18.926;2023-05-15T15:40:16;97296.38;;;24.88;43.27
39487;BME280;25173;50.430;18.926;2023-05-15T15:43:17;97301.41;;;24.65;43.27
39487;BME280;25173;50.430;18.926;2023-05-15T15:46:17;97304.19;;;24.68;43.50
39487;BME280;25173;50.430;18.926;2023-05-15T15:49:18;97312.38;;;24.44;43.17
39487;BME280;25173;50.430;18.926;2023-05-15T15:52:19;97305.09;;;24.28;43.42
39487;BME280;25173;50.430;18.926;2023-05-15T15:55:19;97314.59;;;24.75;42.97
39487;BME280;25173;50.430;18.926;2023-05-15T15:58:20;97300.63;;;25.37;41.87
39487;BME280;25173;50.430;18.926;2023-05-15T16:01:21;97312.03;;;26.15;41.11
39487;BME280;25173;50.430;18.926;2023-05-15T16:04:21;97316.75;;;27.14;40.51